createdAt,value
2022-11-23T00:00:45.415Z,6.50
2022-11-23T00:03:15.603Z,5.77
2022-11-23T00:05:43.569Z,6.13
2022-11-23T00:08:11.474Z,5.93
2022-11-23T00:10:39.557Z,6.03
2022-11-23T00:13:09.148Z,5.83
2022-11-23T00:15:37.088Z,6.57
2022-11-23T00:18:05.146Z,6.47
2022-11-23T00:20:33.046Z,5.87
2022-11-23T00:23:00.939Z,6.30
2022-11-23T00:25:29.695Z,6.73
2022-11-23T00:27:57.662Z,6.37
2022-11-23T00:30:27.076Z,7.53
2022-11-23T00:32:56.804Z,7.47
2022-11-23T00:35:24.996Z,6.77
2022-11-23T00:37:52.902Z,6.73
2022-11-23T00:40:20.813Z,6.73
2022-11-23T00:42:48.724Z,6.23
2022-11-23T00:45:16.675Z,6.70
2022-11-23T00:47:45.983Z,7.07
2022-11-23T00:50:13.898Z,6.83
2022-11-23T00:52:41.819Z,6.77
2022-11-23T00:55:10.016Z,7.70
2022-11-23T00:57:38.260Z,7.10
2022-11-23T01:00:06.982Z,6.47
2022-11-23T01:02:35.878Z,6.60
2022-11-23T01:05:06.162Z,6.27
2022-11-23T01:07:34.214Z,6.90
2022-11-23T01:10:02.155Z,7.10
2022-11-23T01:12:30.439Z,6.27
2022-11-23T01:14:58.386Z,5.97
2022-11-23T01:17:26.413Z,6.77
2022-11-23T01:19:54.319Z,7.13
2022-11-23T01:22:23.662Z,6.20
2022-11-23T01:24:52.185Z,7.13
2022-11-23T01:27:20.121Z,6.73
2022-11-23T01:29:48.001Z,6.43
2022-11-23T01:32:15.929Z,5.43
2022-11-23T01:34:43.908Z,6.33
2022-11-23T01:37:11.894Z,5.53
2022-11-23T01:39:41.286Z,6.20
2022-11-23T01:42:10.240Z,5.80
2022-11-23T01:44:43.140Z,6.37
2022-11-23T01:47:11.702Z,6.63
2022-11-23T01:49:41.286Z,6.23
2022-11-23T01:52:11.333Z,5.43
2022-11-23T01:54:45.164Z,5.77
2022-11-23T01:57:18.172Z,5.53
2022-11-23T01:59:46.457Z,6.10
2022-11-23T02:02:15.218Z,6.60
2022-11-23T02:04:45.142Z,5.50
2022-11-23T02:07:13.356Z,5.47
2022-11-23T02:09:43.430Z,6.77
2022-11-23T02:12:12.744Z,6.83
2022-11-23T02:14:41.301Z,6.37
2022-11-23T02:17:09.502Z,5.70
2022-11-23T02:19:41.503Z,5.70
2022-11-23T02:22:12.648Z,6.03
2022-11-23T02:24:43.558Z,6.43
2022-11-23T02:27:13.077Z,6.40
2022-11-23T02:29:41.069Z,6.50
2022-11-23T02:32:09.266Z,6.00
2022-11-23T02:34:37.242Z,5.47
2022-11-23T02:37:05.139Z,5.80
2022-11-23T02:39:34.589Z,5.17
2022-11-23T02:42:02.736Z,5.77
2022-11-23T02:44:35.514Z,6.37
2022-11-23T02:47:05.880Z,6.10
2022-11-23T02:49:34.147Z,5.43
2022-11-23T02:52:02.290Z,5.37
2022-11-23T02:54:30.258Z,5.30
2022-11-23T02:56:58.471Z,6.00
2022-11-23T02:59:26.422Z,4.50
2022-11-23T03:01:55.807Z,5.50
2022-11-23T03:04:27.950Z,4.93
2022-11-23T03:06:56.102Z,5.53
2022-11-23T03:09:26.507Z,4.97
2022-11-23T03:11:54.539Z,4.70
2022-11-23T03:14:22.580Z,4.17
2022-11-23T03:16:50.455Z,4.97
2022-11-23T03:19:19.813Z,4.93
2022-11-23T03:21:47.751Z,4.33
2022-11-23T03:24:16.407Z,4.50
2022-11-23T03:26:44.340Z,4.83
2022-11-23T03:29:12.460Z,4.07
2022-11-23T03:31:40.351Z,4.40
2022-11-23T03:34:08.383Z,4.80
2022-11-23T03:36:39.037Z,4.97
2022-11-23T03:39:07.060Z,3.97
2022-11-23T03:41:34.996Z,4.43
2022-11-23T03:44:02.972Z,4.50
2022-11-23T03:46:30.875Z,4.90
2022-11-23T03:48:58.800Z,4.40
2022-11-23T03:51:26.719Z,4.47
2022-11-23T03:53:56.086Z,5.07
2022-11-23T03:56:24.688Z,4.80
2022-11-23T03:58:52.701Z,4.20
2022-11-23T04:01:20.635Z,4.63
2022-11-23T04:03:48.593Z,4.53
2022-11-23T04:06:16.506Z,4.70
2022-11-23T04:08:44.467Z,4.70
2022-11-23T04:11:13.844Z,5.13
2022-11-23T04:13:41.770Z,5.70
2022-11-23T04:16:09.707Z,5.20
2022-11-23T04:18:37.975Z,5.37
2022-11-23T04:21:06.109Z,5.20
2022-11-23T04:23:34.033Z,4.33
2022-11-23T04:26:02.134Z,4.57
2022-11-23T04:28:31.481Z,4.40
2022-11-23T04:30:59.573Z,4.60
2022-11-23T04:33:27.490Z,3.50
2022-11-23T04:35:55.418Z,3.57
2022-11-23T04:38:23.324Z,4.30
2022-11-23T04:40:51.297Z,4.00
2022-11-23T04:43:19.221Z,4.33
2022-11-23T04:45:48.578Z,4.00
2022-11-23T04:48:16.542Z,3.70
2022-11-23T04:50:46.748Z,3.90
2022-11-23T04:53:14.855Z,5.77
2022-11-23T04:55:42.743Z,4.33
2022-11-23T04:58:10.679Z,4.13
2022-11-23T05:00:38.640Z,3.90
2022-11-23T05:03:08.054Z,4.27
2022-11-23T05:05:40.801Z,4.37
2022-11-23T05:08:08.744Z,4.20
2022-11-23T05:10:37.218Z,4.17
2022-11-23T05:13:05.316Z,4.87
2022-11-23T05:15:33.271Z,4.50
2022-11-23T05:18:04.548Z,4.87
2022-11-23T05:20:34.208Z,3.93
2022-11-23T05:23:02.155Z,4.63
2022-11-23T05:25:30.119Z,4.30
2022-11-23T05:28:03.749Z,4.27
2022-11-23T05:30:39.344Z,4.63
2022-11-23T05:33:10.605Z,4.63
2022-11-23T05:35:46.155Z,4.33
2022-11-23T05:38:14.758Z,3.63
2022-11-23T05:40:42.722Z,4.37
2022-11-23T05:43:10.669Z,3.37
2022-11-23T05:45:38.565Z,4.47
2022-11-23T05:48:07.066Z,4.20
2022-11-23T05:50:34.950Z,4.00
2022-11-23T05:53:04.319Z,4.37
2022-11-23T05:55:32.762Z,3.93
2022-11-23T05:58:00.667Z,4.73
2022-11-23T06:00:28.607Z,4.17
2022-11-23T06:03:00.393Z,4.87
2022-11-23T06:05:28.350Z,4.30
2022-11-23T06:07:56.450Z,4.57
2022-11-23T06:10:25.833Z,4.57
2022-11-23T06:12:53.776Z,4.90
2022-11-23T06:15:21.825Z,4.83
2022-11-23T06:17:49.752Z,4.37
2022-11-23T06:20:17.732Z,5.30
2022-11-23T06:22:45.723Z,4.33
2022-11-23T06:25:13.783Z,4.93
2022-11-23T06:27:43.082Z,4.20
2022-11-23T06:30:11.612Z,4.13
2022-11-23T06:32:39.961Z,3.50
2022-11-23T06:35:10.650Z,3.67
2022-11-23T06:37:38.644Z,4.40
2022-11-23T06:40:06.934Z,4.67
2022-11-23T06:42:39.753Z,4.73
2022-11-23T06:45:10.298Z,5.30
2022-11-23T06:47:40.265Z,4.47
2022-11-23T06:50:09.619Z,4.30
2022-11-23T06:52:38.064Z,4.10
2022-11-23T06:55:08.136Z,3.93
2022-11-23T06:57:36.066Z,4.57
2022-11-23T07:00:05.356Z,4.63
2022-11-23T07:02:34.724Z,3.80
2022-11-23T07:05:02.675Z,3.67
2022-11-23T07:07:30.671Z,3.27
2022-11-23T07:10:01.569Z,4.93
2022-11-23T07:12:32.278Z,3.97
2022-11-23T07:15:00.327Z,3.90
2022-11-23T07:17:28.801Z,3.47
2022-11-23T07:19:59.132Z,3.60
2022-11-23T07:22:30.736Z,5.07
2022-11-23T07:24:58.884Z,3.83
2022-11-23T07:27:27.688Z,3.90
2022-11-23T07:29:55.888Z,4.60
2022-11-23T07:32:25.155Z,3.80
2022-11-23T07:34:55.146Z,4.03
2022-11-23T07:37:32.123Z,3.90
2022-11-23T07:40:02.944Z,3.30
2022-11-23T07:42:35.573Z,3.93
2022-11-23T07:45:09.888Z,3.90
2022-11-23T07:47:39.368Z,3.90
2022-11-23T07:50:08.281Z,3.77
2022-11-23T07:52:38.936Z,3.57
2022-11-23T07:55:08.333Z,3.73
2022-11-23T07:57:36.996Z,3.87
2022-11-23T08:00:06.667Z,3.60
2022-11-23T08:02:35.856Z,3.60
2022-11-23T08:05:07.732Z,4.40
2022-11-23T08:07:41.857Z,3.70
2022-11-23T08:10:11.109Z,3.67
2022-11-23T08:12:43.085Z,4.40
2022-11-23T08:15:14.419Z,4.07
2022-11-23T08:17:42.491Z,3.57
2022-11-23T08:20:11.407Z,3.70
2022-11-23T08:22:41.608Z,3.87
2022-11-23T08:25:12.717Z,3.53
2022-11-23T08:27:40.972Z,3.10
2022-11-23T08:30:10.372Z,3.53
2022-11-23T08:32:38.389Z,3.50
2022-11-23T08:35:06.917Z,3.30
2022-11-23T08:37:34.895Z,3.03
2022-11-23T08:40:04.313Z,3.97
2022-11-23T08:42:32.350Z,3.80
2022-11-23T08:45:03.267Z,2.90
2022-11-23T08:47:36.080Z,16.40
2022-11-23T08:50:04.254Z,4.50
2022-11-23T08:52:32.594Z,3.53
2022-11-23T08:55:01.642Z,3.37
2022-11-23T08:57:30.946Z,3.57
2022-11-23T08:59:59.071Z,3.63
2022-11-23T09:02:27.586Z,3.40
2022-11-23T09:05:01.420Z,3.93
2022-11-23T09:07:30.230Z,3.50
2022-11-23T09:09:58.368Z,3.87
2022-11-23T09:12:29.409Z,3.57
2022-11-23T09:14:58.936Z,3.40
2022-11-23T09:17:27.161Z,4.40
2022-11-23T09:19:55.744Z,3.93
2022-11-23T09:22:23.992Z,3.77
2022-11-23T09:24:52.081Z,3.37
2022-11-23T09:27:20.432Z,3.43
2022-11-23T09:29:52.269Z,3.47
2022-11-23T09:32:21.741Z,3.73
2022-11-23T09:34:50.203Z,4.10
2022-11-23T09:37:18.243Z,3.50
2022-11-23T09:39:46.612Z,4.43
2022-11-23T09:42:21.814Z,3.80
2022-11-23T09:45:00.028Z,4.30
2022-11-23T09:47:40.252Z,4.63
2022-11-23T09:50:12.607Z,4.23
2022-11-23T09:52:42.129Z,3.87
2022-11-23T09:55:13.850Z,4.07
2022-11-23T09:57:43.157Z,6.10
2022-11-23T10:00:17.923Z,6.83
2022-11-23T10:02:47.579Z,4.90
2022-11-23T10:05:18.213Z,4.10
2022-11-23T10:07:51.278Z,4.20
2022-11-23T10:10:26.548Z,4.10
2022-11-23T10:13:01.210Z,4.37
2022-11-23T10:15:35.196Z,4.57
2022-11-23T10:18:13.124Z,4.17
2022-11-23T10:20:49.150Z,4.00
2022-11-23T10:23:23.380Z,3.67
2022-11-23T10:25:52.698Z,4.67
2022-11-23T10:28:21.667Z,4.03
2022-11-23T10:30:53.052Z,4.03
2022-11-23T10:33:24.329Z,3.93
2022-11-23T10:35:52.233Z,4.10
2022-11-23T10:38:20.869Z,4.37
2022-11-23T10:40:52.169Z,3.60
2022-11-23T10:43:22.651Z,3.63
2022-11-23T10:45:52.047Z,3.60
2022-11-23T10:48:34.952Z,3.63
2022-11-23T10:51:16.852Z,4.00
2022-11-23T10:53:45.522Z,4.03
2022-11-23T10:56:14.333Z,3.10
2022-11-23T10:58:44.595Z,3.57
2022-11-23T11:01:15.327Z,2.73
2022-11-23T11:03:44.754Z,2.83
2022-11-23T11:06:13.151Z,2.93
2022-11-23T11:08:50.732Z,2.20
2022-11-23T11:11:24.007Z,3.10
2022-11-23T11:13:51.979Z,2.57
2022-11-23T11:16:22.010Z,2.50
2022-11-23T11:18:51.399Z,3.20
2022-11-23T11:21:21.055Z,2.30
2022-11-23T11:23:53.138Z,3.10
2022-11-23T11:26:22.451Z,3.07
2022-11-23T11:28:51.786Z,2.70
2022-11-23T11:31:27.431Z,2.80
2022-11-23T11:34:00.329Z,2.83
2022-11-23T11:36:34.699Z,2.70
2022-11-23T11:39:19.748Z,2.83
2022-11-23T11:41:48.719Z,2.77
2022-11-23T11:44:19.365Z,3.07
2022-11-23T11:46:49.168Z,3.17
2022-11-23T11:49:20.647Z,6.53
2022-11-23T11:51:50.132Z,4.33
2022-11-23T11:54:21.239Z,5.23
2022-11-23T11:56:51.570Z,3.10
2022-11-23T11:59:22.477Z,5.00
2022-11-23T12:01:55.551Z,3.90
2022-11-23T12:04:27.698Z,3.10
2022-11-23T12:06:57.838Z,2.63
2022-11-23T12:09:28.485Z,3.30
2022-11-23T12:11:56.557Z,2.10
2022-11-23T12:14:24.711Z,3.60
2022-11-23T12:17:17.055Z,2.60
2022-11-23T12:19:48.857Z,6.13
2022-11-23T12:22:33.352Z,5.10
2022-11-23T12:25:11.938Z,3.10
2022-11-23T12:27:48.544Z,2.13
2022-11-23T12:30:22.879Z,3.33
2022-11-23T12:33:05.551Z,2.40
2022-11-23T12:35:43.211Z,2.33
2022-11-23T12:38:16.662Z,2.47
2022-11-23T12:40:55.055Z,2.20
2022-11-23T12:43:25.245Z,1.93
2022-11-23T12:46:00.886Z,2.50
2022-11-23T12:48:34.600Z,3.10
2022-11-23T12:51:09.931Z,3.27
2022-11-23T12:53:44.053Z,2.17
2022-11-23T12:56:16.544Z,2.97
2022-11-23T12:58:45.889Z,5.03
2022-11-23T13:01:16.274Z,3.90
2022-11-23T13:04:09.056Z,7.80
2022-11-23T13:07:20.370Z,4.97
2022-11-23T13:09:53.493Z,9.57
2022-11-23T13:12:35.382Z,3.03
2022-11-23T13:15:12.002Z,5.60
2022-11-23T13:17:44.864Z,3.60
2022-11-23T13:20:17.185Z,2.00
2022-11-23T13:22:46.268Z,2.67
2022-11-23T13:25:23.834Z,2.07
2022-11-23T13:27:59.405Z,1.77
2022-11-23T13:33:34.434Z,2.37
2022-11-23T13:36:10.425Z,1.83
2022-11-23T13:38:42.180Z,1.50
2022-11-23T13:41:40.365Z,1.80
2022-11-23T13:44:20.686Z,1.83
2022-11-23T13:46:58.497Z,2.50
2022-11-23T13:49:33.923Z,2.90
2022-11-23T13:52:25.691Z,3.00
2022-11-23T13:54:59.095Z,2.30
2022-11-23T13:57:28.556Z,1.83
2022-11-23T14:00:17.944Z,2.93
2022-11-23T14:02:46.420Z,1.60
2022-11-23T14:05:53.340Z,1.90
2022-11-23T14:08:22.157Z,2.60
2022-11-23T14:10:50.674Z,2.00
2022-11-23T14:13:21.143Z,2.00
2022-11-23T14:15:56.860Z,2.40
2022-11-23T14:18:35.947Z,1.90
2022-11-23T14:21:09.775Z,2.50
2022-11-23T14:23:56.010Z,1.33
2022-11-23T14:26:29.458Z,2.50
2022-11-23T14:29:05.314Z,3.53
2022-11-23T14:31:39.552Z,2.30
2022-11-23T14:34:12.295Z,1.50
2022-11-23T14:36:44.830Z,1.63
2022-11-23T14:39:33.660Z,1.53
2022-11-23T14:42:03.234Z,2.13
2022-11-23T14:44:38.155Z,3.57
2022-11-23T14:47:11.864Z,1.57
2022-11-23T14:49:50.293Z,1.30
2022-11-23T14:52:20.106Z,1.10
2022-11-23T14:54:49.199Z,2.37
2022-11-23T14:57:19.107Z,4.27
2022-11-23T14:59:49.035Z,3.83
2022-11-23T15:02:20.459Z,2.73
2022-11-23T15:05:01.004Z,2.07
2022-11-23T15:07:35.367Z,1.77
2022-11-23T15:10:09.206Z,1.77
2022-11-23T15:12:43.164Z,1.60
2022-11-23T15:15:19.718Z,1.63
2022-11-23T15:17:55.585Z,1.77
2022-11-23T15:20:24.631Z,1.83
2022-11-23T15:22:52.884Z,1.33
2022-11-23T15:25:20.875Z,1.53
2022-11-23T15:27:50.034Z,1.53
2022-11-23T15:30:19.404Z,2.00
2022-11-23T15:32:57.942Z,2.00
2022-11-23T15:35:29.790Z,1.97
2022-11-23T15:37:58.096Z,2.53
2022-11-23T15:40:28.790Z,2.93
2022-11-23T15:42:56.783Z,3.33
2022-11-23T15:45:38.789Z,3.47
2022-11-23T15:48:12.417Z,2.30
2022-11-23T15:50:48.626Z,2.70
2022-11-23T15:53:16.640Z,2.43
2022-11-23T15:55:44.829Z,2.40
2022-11-23T15:58:16.670Z,2.60
2022-11-23T16:00:48.332Z,3.03
2022-11-23T16:03:28.309Z,3.50
2022-11-23T16:06:10.138Z,2.53
2022-11-23T16:08:40.917Z,2.53
2022-11-23T16:11:19.908Z,2.23
2022-11-23T16:13:47.842Z,2.50
2022-11-23T16:16:17.295Z,2.80
2022-11-23T16:18:47.356Z,1.93
2022-11-23T16:21:16.474Z,2.20
2022-11-23T16:23:45.968Z,2.10
2022-11-23T16:26:14.615Z,2.80
2022-11-23T16:28:49.800Z,2.83
2022-11-23T16:31:31.059Z,2.87
2022-11-23T16:34:00.500Z,3.53
2022-11-23T16:36:28.788Z,3.00
2022-11-23T16:39:01.076Z,3.17
2022-11-23T16:41:32.234Z,2.40
2022-11-23T16:44:00.405Z,2.17
2022-11-23T16:46:28.448Z,2.90
2022-11-23T16:48:57.519Z,2.60
2022-11-23T16:51:27.017Z,2.33
2022-11-23T16:56:45.236Z,3.10
2022-11-23T16:59:16.299Z,3.20
2022-11-23T17:01:46.049Z,3.53
2022-11-23T17:04:15.493Z,4.73
2022-11-23T17:06:44.890Z,3.43
2022-11-23T17:09:12.848Z,5.00
2022-11-23T17:11:43.635Z,3.90
2022-11-23T17:14:18.500Z,3.87
2022-11-23T17:16:47.694Z,4.97
2022-11-23T17:19:16.563Z,3.90
2022-11-23T17:21:46.290Z,3.87
2022-11-23T17:24:14.435Z,4.07
2022-11-23T17:26:43.390Z,3.40
2022-11-23T17:29:14.123Z,4.00
2022-11-23T17:31:43.689Z,3.47
2022-11-23T17:34:11.614Z,3.97
2022-11-23T17:36:39.713Z,3.63
2022-11-23T17:39:09.330Z,4.40
2022-11-23T17:41:37.377Z,4.30
2022-11-23T17:44:05.501Z,4.10
2022-11-23T17:46:33.855Z,4.67
2022-11-23T17:49:02.635Z,3.70
2022-11-23T17:51:30.787Z,4.10
2022-11-23T17:53:58.743Z,4.30
2022-11-23T17:56:28.196Z,3.90
2022-11-23T17:58:56.147Z,4.03
2022-11-23T18:01:24.259Z,4.17
2022-11-23T18:03:52.360Z,4.43
2022-11-23T18:06:21.029Z,3.83
2022-11-23T18:08:49.863Z,4.80
2022-11-23T18:11:17.793Z,3.97
2022-11-23T18:13:48.941Z,4.03
2022-11-23T18:16:16.949Z,3.90
2022-11-23T18:18:45.246Z,4.00
2022-11-23T18:21:14.631Z,4.47
2022-11-23T18:23:42.634Z,3.67
2022-11-23T18:26:17.816Z,4.47
2022-11-23T18:28:47.534Z,3.20
2022-11-23T18:31:15.883Z,4.07
2022-11-23T18:33:44.026Z,4.10
2022-11-23T18:36:13.112Z,5.13
2022-11-23T18:38:41.394Z,4.67
2022-11-23T18:41:09.480Z,5.97
2022-11-23T18:43:40.728Z,5.97
2022-11-23T18:46:11.215Z,6.07
2022-11-23T18:48:39.415Z,6.03
2022-11-23T18:51:11.812Z,5.77
2022-11-23T18:53:40.159Z,5.00
2022-11-23T18:56:09.335Z,5.17
2022-11-23T18:58:38.150Z,4.90
2022-11-23T19:01:12.140Z,5.80
2022-11-23T19:03:42.516Z,6.33
2022-11-23T19:06:12.131Z,5.80
2022-11-23T19:08:40.293Z,6.10
2022-11-23T19:11:09.194Z,6.97
2022-11-23T19:13:38.182Z,6.27
2022-11-23T19:16:10.216Z,6.73
2022-11-23T19:18:38.564Z,6.40
2022-11-23T19:21:17.861Z,6.77
2022-11-23T19:23:45.841Z,6.43
2022-11-23T19:26:13.741Z,7.33
2022-11-23T19:28:44.903Z,8.40
2022-11-23T19:31:14.150Z,8.63
2022-11-23T19:33:42.174Z,8.67
2022-11-23T19:36:11.708Z,8.33
2022-11-23T19:38:41.429Z,7.97
2022-11-23T19:41:09.805Z,8.57
2022-11-23T19:43:37.943Z,8.27
2022-11-23T19:46:07.172Z,7.60
2022-11-23T19:48:35.796Z,8.67
2022-11-23T19:51:04.895Z,8.47
2022-11-23T19:53:33.763Z,8.50
2022-11-23T19:56:03.819Z,7.57
2022-11-23T19:58:34.500Z,7.80
2022-11-23T20:01:02.979Z,9.33
2022-11-23T20:03:31.235Z,8.57
2022-11-23T20:06:00.113Z,7.43
2022-11-23T20:08:28.448Z,6.97
2022-11-23T20:10:56.550Z,8.63
2022-11-23T20:13:25.916Z,8.10
2022-11-23T20:15:53.859Z,8.37
2022-11-23T20:18:24.468Z,8.33
2022-11-23T20:20:56.458Z,7.77
2022-11-23T20:23:24.449Z,7.43
2022-11-23T20:25:52.513Z,9.13
2022-11-23T20:28:20.473Z,8.60
2022-11-23T20:30:50.854Z,8.20
2022-11-23T20:33:19.629Z,7.37
2022-11-23T20:35:47.898Z,7.97
2022-11-23T20:38:17.461Z,9.07
2022-11-23T20:40:45.363Z,9.77
2022-11-23T20:43:13.655Z,10.30
2022-11-23T20:45:41.616Z,8.47
2022-11-23T20:48:11.020Z,8.90
2022-11-23T20:50:39.277Z,9.37
2022-11-23T20:53:07.174Z,9.70
2022-11-23T20:55:35.143Z,8.90
2022-11-23T20:58:03.053Z,10.97
2022-11-23T21:00:31.533Z,18.00
2022-11-23T21:02:59.668Z,10.50
2022-11-23T21:05:29.313Z,9.67
2022-11-23T21:07:57.584Z,8.53
2022-11-23T21:10:43.129Z,9.07
2022-11-23T21:13:49.167Z,8.73
2022-11-23T21:16:17.918Z,8.53
2022-11-23T21:18:45.877Z,8.80
2022-11-23T21:21:15.200Z,8.03
2022-11-23T21:23:45.182Z,8.50
2022-11-23T21:26:14.982Z,8.37
2022-11-23T21:28:43.529Z,9.03
2022-11-23T21:31:15.262Z,7.80
2022-11-23T21:33:43.804Z,8.10
2022-11-23T21:36:12.126Z,9.07
2022-11-23T21:38:41.767Z,9.60
2022-11-23T21:41:11.311Z,8.37
2022-11-23T21:43:39.493Z,8.20
2022-11-23T21:46:08.094Z,9.30
2022-11-23T21:48:36.449Z,8.83
2022-11-23T21:51:05.814Z,7.83
2022-11-23T21:53:34.264Z,8.17
2022-11-23T21:56:04.180Z,8.80
2022-11-23T21:58:32.232Z,8.87
2022-11-23T22:01:04.612Z,8.07
2022-11-23T22:03:33.281Z,8.20
2022-11-23T22:06:01.223Z,8.17
2022-11-23T22:08:29.822Z,7.63
2022-11-23T22:10:58.058Z,7.80
2022-11-23T22:13:29.552Z,8.20
2022-11-23T22:16:00.792Z,8.87
2022-11-23T22:18:28.732Z,8.30
2022-11-23T22:20:56.720Z,8.03
2022-11-23T22:23:24.649Z,8.63
2022-11-23T22:25:52.588Z,8.10
2022-11-23T22:28:20.642Z,8.20
2022-11-23T22:30:54.861Z,7.97
2022-11-23T22:33:22.863Z,8.67
2022-11-23T22:35:51.412Z,8.60
2022-11-23T22:38:19.515Z,9.60
2022-11-23T22:40:47.605Z,9.50
2022-11-23T22:43:15.608Z,8.50
2022-11-23T22:45:43.647Z,9.10
2022-11-23T22:48:13.072Z,9.67
2022-11-23T22:50:41.275Z,8.53
2022-11-23T22:53:11.902Z,10.10
2022-11-23T22:55:40.408Z,9.50
2022-11-23T22:58:08.726Z,11.00
2022-11-23T23:00:36.873Z,10.33
2022-11-23T23:03:04.974Z,10.40
2022-11-23T23:05:34.369Z,9.50
2022-11-23T23:08:02.425Z,10.80
2022-11-23T23:10:30.341Z,10.13
2022-11-23T23:12:58.350Z,9.83
2022-11-23T23:15:26.328Z,10.00
2022-11-23T23:17:54.272Z,8.43
2022-11-23T23:20:22.269Z,8.83
2022-11-23T23:22:51.640Z,9.63
2022-11-23T23:25:20.057Z,7.47
2022-11-23T23:27:48.093Z,7.63
2022-11-23T23:30:18.369Z,7.40
2022-11-23T23:32:46.740Z,7.70
2022-11-23T23:35:14.772Z,7.07
2022-11-23T23:37:42.754Z,7.20
2022-11-23T23:40:12.379Z,6.73
2022-11-23T23:42:40.456Z,6.73
2022-11-23T23:45:09.214Z,7.20
2022-11-23T23:47:37.920Z,6.97
2022-11-23T23:50:06.325Z,6.80
2022-11-23T23:52:34.273Z,8.30
2022-11-23T23:55:02.325Z,7.40
2022-11-23T23:57:31.951Z,6.43
2022-11-23T23:59:59.914Z,7.07
